sensor_id;sensor_type;location;lat;lon;timestamp;pressure;altitude;pressure_sealevel;temperature;humidity
83664;BME280;73634;47.068;15.426;2024-02-23T00:03:08;95819.22;;;8.72;61.38
83664;BME280;73634;47.068;15.426;2024-02-23T00:05:35;95812.69;;;8.74;61.60
83664;BME280;73634;47.068;15.426;2024-02-23T00:08:01;95817.84;;;8.74;61.33
83664;BME280;73634;47.068;15.426;2024-02-23T00:10:26;95820.44;;;8.65;61.72
83664;BME280;73634;47.068;15.426;2024-02-23T00:12:51;95818.16;;;8.64;61.84
83664;BME280;73634;47.068;15.426;2024-02-23T00:15:17;95818.16;;;8.64;62.08
83664;BME280;73634;47.068;15.426;2024-02-23T00:17:42;95812.97;;;8.64;62.10
83664;BME280;73634;47.068;15.426;2024-02-23T00:20:09;95810.50;;;8.59;62.50
83664;BME280;73634;47.068;15.426;2024-02-23T00:22:37;95807.47;;;8.57;62.12
83664;BME280;73634;47.068;15.426;2024-02-23T00:25:04;95803.03;;;8.57;63.05
83664;BME280;73634;47.068;15.426;2024-02-23T00:29:34;95803.97;;;8.61;62.24
83664;BME280;73634;47.068;15.426;2024-02-23T00:32:00;95803.34;;;8.64;62.22
83664;BME280;73634;47.068;15.426;2024-02-23T00:34:25;95801.34;;;8.53;62.91
83664;BME280;73634;47.068;15.426;2024-02-23T00:36:51;95809.44;;;8.60;62.59
83664;BME280;73634;47.068;15.426;2024-02-23T00:39:16;95805.03;;;8.60;62.33
83664;BME280;73634;47.068;15.426;2024-02-23T00:41:41;95804.13;;;8.65;62.58
83664;BME280;73634;47.068;15.426;2024-02-23T00:44:07;95809.31;;;8.65;62.44
83664;BME280;73634;47.068;15.426;2024-02-23T00:46:32;95805.34;;;8.59;62.67
83664;BME280;73634;47.068;15.426;2024-02-23T00:48:58;95806.06;;;8.51;63.33
83664;BME280;73634;47.068;15.426;2024-02-23T00:51:23;95803.03;;;8.57;62.76
83664;BME280;73634;47.068;15.426;2024-02-23T00:55:29;95809.59;;;8.55;63.32
83664;BME280;73634;47.068;15.426;2024-02-23T00:57:55;95806.22;;;8.54;63.54
83664;BME280;73634;47.068;15.426;2024-02-23T01:00:21;95813.72;;;8.56;63.26
83664;BME280;73634;47.068;15.426;2024-02-23T01:02:46;95815.53;;;8.55;63.56
83664;BME280;73634;47.068;15.426;2024-02-23T01:05:12;95816.31;;;8.64;63.12
83664;BME280;73634;47.068;15.426;2024-02-23T01:07:38;95819.06;;;8.68;62.83
83664;BME280;73634;47.068;15.426;2024-02-23T01:10:03;95817.69;;;8.71;62.98
83664;BME280;73634;47.068;15.426;2024-02-23T01:12:29;95812.50;;;8.71;63.13
83664;BME280;73634;47.068;15.426;2024-02-23T01:14:55;95816.19;;;8.69;63.53
83664;BME280;73634;47.068;15.426;2024-02-23T01:17:20;95816.78;;;8.66;63.79
83664;BME280;73634;47.068;15.426;2024-02-23T01:21:56;95816.31;;;8.64;64.17
83664;BME280;73634;47.068;15.426;2024-02-23T01:24:25;95812.34;;;8.58;64.99
83664;BME280;73634;47.068;15.426;2024-02-23T01:26:53;95816.31;;;8.56;65.19
83664;BME280;73634;47.068;15.426;2024-02-23T01:29:18;95818.59;;;8.57;65.53
83664;BME280;73634;47.068;15.426;2024-02-23T01:31:44;95820.72;;;8.55;66.18
83664;BME280;73634;47.068;15.426;2024-02-23T01:34:09;95818.72;;;8.52;66.92
83664;BME280;73634;47.068;15.426;2024-02-23T01:36:35;95819.19;;;8.54;66.70
83664;BME280;73634;47.068;15.426;2024-02-23T01:39:01;95813.41;;;8.57;67.05
83664;BME280;73634;47.068;15.426;2024-02-23T01:41:26;95823.78;;;8.57;67.27
83664;BME280;73634;47.068;15.426;2024-02-23T01:43:52;95822.09;;;8.53;67.48
83664;BME280;73634;47.068;15.426;2024-02-23T01:47:21;95818.72;;;8.52;67.58
83664;BME280;73634;47.068;15.426;2024-02-23T01:49:47;95829.84;;;8.44;68.11
83664;BME280;73634;47.068;15.426;2024-02-23T01:52:13;95822.84;;;8.36;68.36
83664;BME280;73634;47.068;15.426;2024-02-23T01:54:39;95822.38;;;8.34;69.13
83664;BME280;73634;47.068;15.426;2024-02-23T01:57:06;95813.47;;;8.26;69.52
83664;BME280;73634;47.068;15.426;2024-02-23T01:59:32;95819.25;;;8.23;69.69
83664;BME280;73634;47.068;15.426;2024-02-23T02:01:58;95821.56;;;8.25;70.33
83664;BME280;73634;47.068;15.426;2024-02-23T02:04:23;95832.53;;;8.30;70.44
83664;BME280;73634;47.068;15.426;2024-02-23T02:06:48;95821.84;;;8.23;70.40
83664;BME280;73634;47.068;15.426;2024-02-23T02:09:14;95818.28;;;8.11;71.67
83664;BME280;73634;47.068;15.426;2024-02-23T02:11:49;95816.44;;;8.02;72.56
83664;BME280;73634;47.068;15.426;2024-02-23T02:16:02;95815.66;;;7.93;73.17
83664;BME280;73634;47.068;15.426;2024-02-23T02:18:27;95826.56;;;7.82;74.83
83664;BME280;73634;47.068;15.426;2024-02-23T02:20:56;95809.69;;;7.84;74.38
83664;BME280;73634;47.068;15.426;2024-02-23T02:23:23;95811.22;;;7.85;74.53
83664;BME280;73634;47.068;15.426;2024-02-23T02:25:58;95819.06;;;7.72;75.51
83664;BME280;73634;47.068;15.426;2024-02-23T02:28:25;95818.00;;;7.73;75.74
83664;BME280;73634;47.068;15.426;2024-02-23T02:30:53;95810.22;;;7.73;76.06
83664;BME280;73634;47.068;15.426;2024-02-23T02:33:19;95798.59;;;7.61;76.97
83664;BME280;73634;47.068;15.426;2024-02-23T02:35:44;95806.84;;;7.63;75.75
83664;BME280;73634;47.068;15.426;2024-02-23T02:40:42;95812.00;;;7.63;76.25
83664;BME280;73634;47.068;15.426;2024-02-23T02:43:07;95815.25;;;7.69;76.00
83664;BME280;73634;47.068;15.426;2024-02-23T02:45:33;95812.06;;;7.72;76.29
83664;BME280;73634;47.068;15.426;2024-02-23T02:48:00;95813.94;;;7.80;75.74
83664;BME280;73634;47.068;15.426;2024-02-23T02:50:25;95817.56;;;7.79;75.63
83664;BME280;73634;47.068;15.426;2024-02-23T02:52:50;95806.31;;;7.84;75.32
83664;BME280;73634;47.068;15.426;2024-02-23T02:55:16;95816.97;;;7.82;75.70
83664;BME280;73634;47.068;15.426;2024-02-23T02:57:41;95815.00;;;7.79;75.70
83664;BME280;73634;47.068;15.426;2024-02-23T03:00:09;95819.44;;;7.87;75.39
83664;BME280;73634;47.068;15.426;2024-02-23T03:02:35;95810.78;;;7.92;75.49
83664;BME280;73634;47.068;15.426;2024-02-23T03:07:09;95821.75;;;7.89;74.80
83664;BME280;73634;47.068;15.426;2024-02-23T03:09:34;95821.88;;;7.84;75.17
83664;BME280;73634;47.068;15.426;2024-02-23T03:11:59;95823.25;;;7.90;75.17
83664;BME280;73634;47.068;15.426;2024-02-23T03:14:25;95816.13;;;7.95;74.69
83664;BME280;73634;47.068;15.426;2024-02-23T03:16:50;95818.13;;;7.98;73.42
83664;BME280;73634;47.068;15.426;2024-02-23T03:19:16;95825.72;;;8.03;72.93
83664;BME280;73634;47.068;15.426;2024-02-23T03:21:41;95816.31;;;8.08;72.89
83664;BME280;73634;47.068;15.426;2024-02-23T03:24:06;95815.53;;;8.07;73.17
83664;BME280;73634;47.068;15.426;2024-02-23T03:26:32;95819.03;;;8.02;73.03
83664;BME280;73634;47.068;15.426;2024-02-23T03:28:57;95813.88;;;8.11;72.76
83664;BME280;73634;47.068;15.426;2024-02-23T03:33:37;95815.38;;;8.03;73.13
83664;BME280;73634;47.068;15.426;2024-02-23T03:36:03;95812.31;;;8.01;71.74
83664;BME280;73634;47.068;15.426;2024-02-23T03:38:29;95811.72;;;8.04;70.86
83664;BME280;73634;47.068;15.426;2024-02-23T03:40:55;95821.16;;;8.00;71.31
83664;BME280;73634;47.068;15.426;2024-02-23T03:43:20;95817.66;;;8.05;71.29
83664;BME280;73634;47.068;15.426;2024-02-23T03:45:46;95818.28;;;8.11;73.26
83664;BME280;73634;47.068;15.426;2024-02-23T03:48:11;95821.91;;;7.92;76.17
83664;BME280;73634;47.068;15.426;2024-02-23T03:50:37;95830.28;;;7.89;75.97
83664;BME280;73634;47.068;15.426;2024-02-23T03:53:02;95836.94;;;7.82;76.78
83664;BME280;73634;47.068;15.426;2024-02-23T03:57:47;95830.53;;;7.79;77.15
83664;BME280;73634;47.068;15.426;2024-02-23T04:00:13;95838.41;;;7.74;77.68
83664;BME280;73634;47.068;15.426;2024-02-23T04:02:39;95845.72;;;7.72;77.21
83664;BME280;73634;47.068;15.426;2024-02-23T04:05:05;95841.13;;;7.69;77.64
83664;BME280;73634;47.068;15.426;2024-02-23T04:07:31;95841.84;;;7.61;78.15
83664;BME280;73634;47.068;15.426;2024-02-23T04:09:56;95852.81;;;7.66;77.88
83664;BME280;73634;47.068;15.426;2024-02-23T04:12:22;95848.59;;;7.70;77.84
83664;BME280;73634;47.068;15.426;2024-02-23T04:14:47;95854.72;;;7.75;77.47
83664;BME280;73634;47.068;15.426;2024-02-23T04:17:13;95850.88;;;7.72;78.38
83664;BME280;73634;47.068;15.426;2024-02-23T04:21:57;95857.53;;;7.64;78.91
83664;BME280;73634;47.068;15.426;2024-02-23T04:24:23;95857.28;;;7.75;78.84
83664;BME280;73634;47.068;15.426;2024-02-23T04:26:48;95875.13;;;7.76;78.55
83664;BME280;73634;47.068;15.426;2024-02-23T04:29:13;95868.94;;;7.63;79.07
83664;BME280;73634;47.068;15.426;2024-02-23T04:31:39;95858.31;;;7.65;78.69
83664;BME280;73634;47.068;15.426;2024-02-23T04:34:04;95869.53;;;7.60;79.18
83664;BME280;73634;47.068;15.426;2024-02-23T04:36:29;95864.50;;;7.55;79.79
83664;BME280;73634;47.068;15.426;2024-02-23T04:38:55;95876.91;;;7.45;80.38
83664;BME280;73634;47.068;15.426;2024-02-23T04:41:20;95890.50;;;7.50;80.02
83664;BME280;73634;47.068;15.426;2024-02-23T04:46:24;95871.81;;;7.53;79.72
83664;BME280;73634;47.068;15.426;2024-02-23T04:48:49;95885.91;;;7.47;80.34
83664;BME280;73634;47.068;15.426;2024-02-23T04:51:14;95893.38;;;7.49;80.07
83664;BME280;73634;47.068;15.426;2024-02-23T04:53:39;95899.50;;;7.53;79.97
83664;BME280;73634;47.068;15.426;2024-02-23T04:56:05;95901.03;;;7.54;79.48
83664;BME280;73634;47.068;15.426;2024-02-23T04:58:31;95897.13;;;7.65;78.94
83664;BME280;73634;47.068;15.426;2024-02-23T05:00:56;95902.88;;;7.62;78.99
83664;BME280;73634;47.068;15.426;2024-02-23T05:03:22;95900.28;;;7.53;79.61
83664;BME280;73634;47.068;15.426;2024-02-23T05:05:47;95906.91;;;7.46;80.15
83664;BME280;73634;47.068;15.426;2024-02-23T05:08:14;95910.66;;;7.40;80.37
83664;BME280;73634;47.068;15.426;2024-02-23T05:13:17;95907.78;;;7.41;79.80
83664;BME280;73634;47.068;15.426;2024-02-23T05:15:42;95906.84;;;7.37;79.71
83664;BME280;73634;47.068;15.426;2024-02-23T05:18:08;95908.47;;;7.33;79.83
83664;BME280;73634;47.068;15.426;2024-02-23T05:20:33;95906.66;;;7.33;79.99
83664;BME280;73634;47.068;15.426;2024-02-23T05:22:58;95907.72;;;7.32;79.80
83664;BME280;73634;47.068;15.426;2024-02-23T05:25:24;95904.53;;;7.35;80.47
83664;BME280;73634;47.068;15.426;2024-02-23T05:27:51;95907.06;;;7.27;80.40
83664;BME280;73634;47.068;15.426;2024-02-23T05:30:16;95914.63;;;7.23;80.42
83664;BME280;73634;47.068;15.426;2024-02-23T05:32:42;95917.94;;;7.15;80.62
83664;BME280;73634;47.068;15.426;2024-02-23T05:35:07;95904.34;;;7.10;80.81
83664;BME280;73634;47.068;15.426;2024-02-23T05:38:58;95911.53;;;7.13;80.85
83664;BME280;73634;47.068;15.426;2024-02-23T05:41:24;95907.13;;;7.13;80.87
83664;BME280;73634;47.068;15.426;2024-02-23T05:43:49;95902.06;;;7.08;80.77
83664;BME280;73634;47.068;15.426;2024-02-23T05:46:14;95901.69;;;7.01;81.67
83664;BME280;73634;47.068;15.426;2024-02-23T05:48:40;95898.41;;;7.09;80.96
83664;BME280;73634;47.068;15.426;2024-02-23T05:51:05;95907.44;;;6.98;80.89
83664;BME280;73634;47.068;15.426;2024-02-23T05:53:30;95895.38;;;6.93;80.84
83664;BME280;73634;47.068;15.426;2024-02-23T05:55:58;95908.00;;;6.95;80.65
83664;BME280;73634;47.068;15.426;2024-02-23T05:58:23;95901.31;;;6.94;81.36
83664;BME280;73634;47.068;15.426;2024-02-23T06:03:26;95904.88;;;6.84;81.91
83664;BME280;73634;47.068;15.426;2024-02-23T06:05:51;95900.66;;;6.88;81.04
83664;BME280;73634;47.068;15.426;2024-02-23T06:08:19;95897.00;;;6.89;81.48
83664;BME280;73634;47.068;15.426;2024-02-23T06:10:44;95900.16;;;6.86;81.50
83664;BME280;73634;47.068;15.426;2024-02-23T06:13:10;95913.38;;;6.85;81.65
83664;BME280;73634;47.068;15.426;2024-02-23T06:15:35;95928.50;;;6.91;81.12
83664;BME280;73634;47.068;15.426;2024-02-23T06:18:01;95918.94;;;6.92;81.08
83664;BME280;73634;47.068;15.426;2024-02-23T06:20:26;95919.41;;;6.94;81.45
83664;BME280;73634;47.068;15.426;2024-02-23T06:22:51;95920.94;;;6.95;81.11
83664;BME280;73634;47.068;15.426;2024-02-23T06:28:23;95936.16;;;6.83;81.76
83664;BME280;73634;47.068;15.426;2024-02-23T06:30:48;95933.69;;;6.91;81.42
83664;BME280;73634;47.068;15.426;2024-02-23T06:33:13;95930.50;;;6.94;81.63
83664;BME280;73634;47.068;15.426;2024-02-23T06:35:39;95928.69;;;6.95;80.96
83664;BME280;73634;47.068;15.426;2024-02-23T06:38:04;95932.53;;;6.97;80.90
83664;BME280;73634;47.068;15.426;2024-02-23T06:40:30;95935.66;;;7.08;80.23
83664;BME280;73634;47.068;15.426;2024-02-23T06:42:56;95922.63;;;7.13;80.55
83664;BME280;73634;47.068;15.426;2024-02-23T06:45:21;95925.25;;;6.99;80.28
83664;BME280;73634;47.068;15.426;2024-02-23T06:47:50;95930.88;;;7.01;80.42
83664;BME280;73634;47.068;15.426;2024-02-23T06:50:16;95935.09;;;7.11;80.04
83664;BME280;73634;47.068;15.426;2024-02-23T06:54:04;95930.41;;;6.99;80.64
83664;BME280;73634;47.068;15.426;2024-02-23T06:56:29;95932.78;;;7.10;79.46
83664;BME280;73634;47.068;15.426;2024-02-23T06:58:55;95930.50;;;7.08;80.04
83664;BME280;73634;47.068;15.426;2024-02-23T07:01:20;95923.41;;;7.14;80.42
83664;BME280;73634;47.068;15.426;2024-02-23T07:03:46;95937.44;;;7.21;79.52
83664;BME280;73634;47.068;15.426;2024-02-23T07:06:11;95939.50;;;7.11;80.02
83664;BME280;73634;47.068;15.426;2024-02-23T07:08:36;95954.34;;;7.19;80.44
83664;BME280;73634;47.068;15.426;2024-02-23T07:11:02;95951.31;;;7.25;79.57
83664;BME280;73634;47.068;15.426;2024-02-23T07:13:27;95940.97;;;7.25;79.68
83664;BME280;73634;47.068;15.426;2024-02-23T07:18:26;95945.81;;;7.41;79.57
83664;BME280;73634;47.068;15.426;2024-02-23T07:20:52;95945.78;;;7.54;78.98
83664;BME280;73634;47.068;15.426;2024-02-23T07:23:17;95944.47;;;7.65;77.86
83664;BME280;73634;47.068;15.426;2024-02-23T07:25:42;95951.72;;;7.77;77.77
83664;BME280;73634;47.068;15.426;2024-02-23T07:28:08;95955.13;;;7.64;77.93
83664;BME280;73634;47.068;15.426;2024-02-23T07:30:33;95952.69;;;7.59;78.80
83664;BME280;73634;47.068;15.426;2024-02-23T07:33:00;95955.47;;;7.71;77.80
83664;BME280;73634;47.068;15.426;2024-02-23T07:35:25;95956.78;;;7.82;77.00
83664;BME280;73634;47.068;15.426;2024-02-23T07:37:51;95970.06;;;7.67;78.00
83664;BME280;73634;47.068;15.426;2024-02-23T07:42:38;95967.97;;;7.91;76.90
83664;BME280;73634;47.068;15.426;2024-02-23T07:45:04;95966.16;;;7.92;76.74
83664;BME280;73634;47.068;15.426;2024-02-23T07:47:31;95965.69;;;7.90;76.65
83664;BME280;73634;47.068;15.426;2024-02-23T07:49:57;95971.50;;;7.95;76.00
83664;BME280;73634;47.068;15.426;2024-02-23T07:52:22;95965.69;;;7.90;76.38
83664;BME280;73634;47.068;15.426;2024-02-23T07:54:49;95965.69;;;7.90;76.15
83664;BME280;73634;47.068;15.426;2024-02-23T07:57:17;95958.97;;;7.89;75.88
83664;BME280;73634;47.068;15.426;2024-02-23T07:59:42;95960.06;;;7.74;77.21
83664;BME280;73634;47.068;15.426;2024-02-23T08:02:08;95980.56;;;7.84;76.26
83664;BME280;73634;47.068;15.426;2024-02-23T08:06:34;95978.50;;;7.95;75.80
83664;BME280;73634;47.068;15.426;2024-02-23T08:08:59;95991.38;;;7.86;75.75
83664;BME280;73634;47.068;15.426;2024-02-23T08:11:24;95987.66;;;8.01;75.15
83664;BME280;73634;47.068;15.426;2024-02-23T08:13:50;96002.13;;;8.02;75.04
83664;BME280;73634;47.068;15.426;2024-02-23T08:16:16;95995.84;;;8.17;74.86
83664;BME280;73634;47.068;15.426;2024-02-23T08:18:42;95983.59;;;8.31;73.84
83664;BME280;73634;47.068;15.426;2024-02-23T08:21:12;95983.88;;;8.29;73.12
83664;BME280;73634;47.068;15.426;2024-02-23T08:23:38;95990.13;;;8.28;73.86
83664;BME280;73634;47.068;15.426;2024-02-23T08:26:03;95991.66;;;8.29;73.75
83664;BME280;73634;47.068;15.426;2024-02-23T08:30:15;95984.56;;;8.44;73.34
83664;BME280;73634;47.068;15.426;2024-02-23T08:32:41;95991.75;;;8.47;72.62
83664;BME280;73634;47.068;15.426;2024-02-23T08:35:06;95982.44;;;8.46;72.84
83664;BME280;73634;47.068;15.426;2024-02-23T08:37:32;95980.91;;;8.45;72.66
83664;BME280;73634;47.068;15.426;2024-02-23T08:39:57;95996.28;;;8.41;72.61
83664;BME280;73634;47.068;15.426;2024-02-23T08:42:23;95994.63;;;8.37;73.04
83664;BME280;73634;47.068;15.426;2024-02-23T08:44:48;95990.13;;;8.28;73.26
83664;BME280;73634;47.068;15.426;2024-02-23T08:47:14;95984.25;;;8.37;72.45
83664;BME280;73634;47.068;15.426;2024-02-23T08:49:39;95977.38;;;8.41;72.55
83664;BME280;73634;47.068;15.426;2024-02-23T08:54:11;95968.13;;;8.48;71.31
83664;BME280;73634;47.068;15.426;2024-02-23T08:56:38;95969.97;;;8.48;71.95
83664;BME280;73634;47.068;15.426;2024-02-23T08:59:05;95975.72;;;8.45;72.01
83664;BME280;73634;47.068;15.426;2024-02-23T09:01:30;95984.56;;;8.44;72.28
83664;BME280;73634;47.068;15.426;2024-02-23T09:03:55;95987.34;;;8.47;72.00
83664;BME280;73634;47.068;15.426;2024-02-23T09:06:21;95996.22;;;8.55;71.62
83664;BME280;73634;47.068;15.426;2024-02-23T09:08:46;95980.84;;;8.58;71.75
83664;BME280;73634;47.068;15.426;2024-02-23T09:11:12;95975.59;;;8.50;71.76
83664;BME280;73634;47.068;15.426;2024-02-23T09:13:39;95976.78;;;8.44;71.92
83664;BME280;73634;47.068;15.426;2024-02-23T09:17:36;95993.59;;;8.46;72.56
83664;BME280;73634;47.068;15.426;2024-02-23T09:20:02;95983.88;;;8.60;72.02
83664;BME280;73634;47.068;15.426;2024-02-23T09:22:27;95978.25;;;8.58;71.71
83664;BME280;73634;47.068;15.426;2024-02-23T09:24:53;95971.31;;;8.45;72.76
83664;BME280;73634;47.068;15.426;2024-02-23T09:27:21;95968.59;;;8.50;72.65
83664;BME280;73634;47.068;15.426;2024-02-23T09:29:46;95967.84;;;8.50;71.60
83664;BME280;73634;47.068;15.426;2024-02-23T09:32:12;95965.41;;;8.53;71.52
83664;BME280;73634;47.068;15.426;2024-02-23T09:34:37;95983.84;;;8.52;71.30
83664;BME280;73634;47.068;15.426;2024-02-23T09:37:03;95993.91;;;8.53;71.43
83664;BME280;73634;47.068;15.426;2024-02-23T09:42:01;95978.56;;;8.65;71.51
83664;BME280;73634;47.068;15.426;2024-02-23T09:44:32;95975.34;;;8.60;71.57
83664;BME280;73634;47.068;15.426;2024-02-23T09:47:01;95982.38;;;8.59;72.02
83664;BME280;73634;47.068;15.426;2024-02-23T09:49:36;95982.97;;;8.56;72.86
83664;BME280;73634;47.068;15.426;2024-02-23T09:52:04;95991.50;;;8.57;73.19
83664;BME280;73634;47.068;15.426;2024-02-23T09:54:32;95991.06;;;8.63;71.87
83664;BME280;73634;47.068;15.426;2024-02-23T09:56:57;95984.53;;;8.66;72.12
83664;BME280;73634;47.068;15.426;2024-02-23T09:59:23;95989.66;;;8.57;71.93
83664;BME280;73634;47.068;15.426;2024-02-23T10:01:48;95985.38;;;8.53;72.46
83664;BME280;73634;47.068;15.426;2024-02-23T10:06:41;95988.53;;;8.41;72.98
83664;BME280;73634;47.068;15.426;2024-02-23T10:09:07;95986.69;;;8.42;72.72
83664;BME280;73634;47.068;15.426;2024-02-23T10:11:32;95985.34;;;8.44;73.23
83664;BME280;73634;47.068;15.426;2024-02-23T10:13:57;95978.47;;;8.40;72.89
83664;BME280;73634;47.068;15.426;2024-02-23T10:16:23;95970.72;;;8.40;73.10
83664;BME280;73634;47.068;15.426;2024-02-23T10:18:48;95982.28;;;8.42;72.77
83664;BME280;73634;47.068;15.426;2024-02-23T10:21:15;95969.19;;;8.47;73.19
83664;BME280;73634;47.068;15.426;2024-02-23T10:23:41;95980.59;;;8.38;73.65
83664;BME280;73634;47.068;15.426;2024-02-23T10:26:07;95992.63;;;8.33;73.75
83664;BME280;73634;47.068;15.426;2024-02-23T10:31:08;95984.41;;;8.40;73.77
83664;BME280;73634;47.068;15.426;2024-02-23T10:33:34;95978.47;;;8.40;73.50
83664;BME280;73634;47.068;15.426;2024-02-23T10:36:00;95977.84;;;8.43;73.45
83664;BME280;73634;47.068;15.426;2024-02-23T10:38:32;95972.84;;;8.46;73.38
83664;BME280;73634;47.068;15.426;2024-02-23T10:40:57;95959.88;;;8.46;73.36
83664;BME280;73634;47.068;15.426;2024-02-23T10:43:30;95961.41;;;8.47;73.32
83664;BME280;73634;47.068;15.426;2024-02-23T10:45:58;95962.31;;;8.43;73.19
83664;BME280;73634;47.068;15.426;2024-02-23T10:48:25;95955.59;;;8.42;73.13
83664;BME280;73634;47.068;15.426;2024-02-23T10:50:52;95957.28;;;8.46;73.31
83664;BME280;73634;47.068;15.426;2024-02-23T10:53:19;95950.41;;;8.42;73.50
83664;BME280;73634;47.068;15.426;2024-02-23T10:58:16;95946.53;;;8.30;74.49
83664;BME280;73634;47.068;15.426;2024-02-23T11:00:41;95945.69;;;8.35;74.14
83664;BME280;73634;47.068;15.426;2024-02-23T11:03:08;95939.75;;;8.34;74.05
83664;BME280;73634;47.068;15.426;2024-02-23T11:05:33;95946.63;;;8.39;74.00
83664;BME280;73634;47.068;15.426;2024-02-23T11:07:59;95948.75;;;8.37;73.96
83664;BME280;73634;47.068;15.426;2024-02-23T11:10:24;95944.31;;;8.38;74.32
83664;BME280;73634;47.068;15.426;2024-02-23T11:12:59;95946.47;;;8.44;74.20
83664;BME280;73634;47.068;15.426;2024-02-23T11:15:28;95938.38;;;8.46;74.06
83664;BME280;73634;47.068;15.426;2024-02-23T11:17:54;95933.81;;;8.43;74.83
83664;BME280;73634;47.068;15.426;2024-02-23T11:23:27;95932.13;;;8.38;75.23
83664;BME280;73634;47.068;15.426;2024-02-23T11:28:28;95924.06;;;8.48;74.87
83664;BME280;73634;47.068;15.426;2024-02-23T11:30:54;95909.31;;;8.57;74.59
83664;BME280;73634;47.068;15.426;2024-02-23T11:33:26;95917.88;;;8.66;74.58
83664;BME280;73634;47.068;15.426;2024-02-23T11:35:51;95924.09;;;8.57;74.92
83664;BME280;73634;47.068;15.426;2024-02-23T11:38:18;95922.34;;;8.75;74.55
83664;BME280;73634;47.068;15.426;2024-02-23T11:40:47;95916.69;;;8.73;74.83
83664;BME280;73634;47.068;15.426;2024-02-23T11:43:13;95915.00;;;8.85;74.06
83664;BME280;73634;47.068;15.426;2024-02-23T11:45:40;95907.25;;;8.85;74.24
83664;BME280;73634;47.068;15.426;2024-02-23T11:49:53;95908.66;;;9.09;73.63
83664;BME280;73634;47.068;15.426;2024-02-23T11:52:18;95910.19;;;9.18;73.61
83664;BME280;73634;47.068;15.426;2024-02-23T11:54:44;95911.25;;;9.34;72.33
83664;BME280;73634;47.068;15.426;2024-02-23T11:57:09;95907.91;;;9.51;71.84
83664;BME280;73634;47.068;15.426;2024-02-23T11:59:35;95910.91;;;9.62;71.39
83664;BME280;73634;47.068;15.426;2024-02-23T12:02:00;95906.63;;;9.75;69.27
83664;BME280;73634;47.068;15.426;2024-02-23T12:04:26;95916.13;;;9.36;70.67
83664;BME280;73634;47.068;15.426;2024-02-23T12:06:54;95896.59;;;9.39;70.29
83664;BME280;73634;47.068;15.426;2024-02-23T12:09:19;95899.34;;;9.33;70.15
83664;BME280;73634;47.068;15.426;2024-02-23T12:11:45;95897.22;;;9.18;69.42
83664;BME280;73634;47.068;15.426;2024-02-23T12:17:18;95887.44;;;9.15;69.39
83664;BME280;73634;47.068;15.426;2024-02-23T12:19:44;95884.81;;;8.89;69.61
83664;BME280;73634;47.068;15.426;2024-02-23T12:22:12;95881.59;;;8.84;70.70
83664;BME280;73634;47.068;15.426;2024-02-23T12:24:40;95885.44;;;8.78;70.99
83664;BME280;73634;47.068;15.426;2024-02-23T12:27:06;95885.28;;;8.74;70.83
83664;BME280;73634;47.068;15.426;2024-02-23T12:29:32;95876.09;;;8.68;70.79
83664;BME280;73634;47.068;15.426;2024-02-23T12:32:05;95879.75;;;8.67;70.58
83664;BME280;73634;47.068;15.426;2024-02-23T12:34:30;95872.78;;;8.76;70.74
83664;BME280;73634;47.068;15.426;2024-02-23T12:36:56;95882.53;;;8.79;71.00
83664;BME280;73634;47.068;15.426;2024-02-23T12:41:53;95862.69;;;8.83;70.89
83664;BME280;73634;47.068;15.426;2024-02-23T12:44:18;95868.34;;;8.85;70.77
83664;BME280;73634;47.068;15.426;2024-02-23T12:46:44;95859.03;;;8.93;70.22
83664;BME280;73634;47.068;15.426;2024-02-23T12:49:09;95856.44;;;8.76;70.50
83664;BME280;73634;47.068;15.426;2024-02-23T12:51:34;95859.03;;;8.84;70.69
83664;BME280;73634;47.068;15.426;2024-02-23T12:54:00;95844.69;;;8.87;70.74
83664;BME280;73634;47.068;15.426;2024-02-23T12:56:26;95837.97;;;8.68;70.49
83664;BME280;73634;47.068;15.426;2024-02-23T12:58:51;95837.22;;;8.85;70.88
83664;BME280;73634;47.068;15.426;2024-02-23T13:01:19;95833.09;;;8.93;71.10
83664;BME280;73634;47.068;15.426;2024-02-23T13:06:33;95829.00;;;8.92;70.48
83664;BME280;73634;47.068;15.426;2024-02-23T13:08:59;95833.13;;;9.01;70.31
83664;BME280;73634;47.068;15.426;2024-02-23T13:11:24;95833.13;;;9.10;70.40
83664;BME280;73634;47.068;15.426;2024-02-23T13:13:49;95828.53;;;9.07;70.67
83664;BME280;73634;47.068;15.426;2024-02-23T13:16:15;95823.81;;;8.92;71.00
83664;BME280;73634;47.068;15.426;2024-02-23T13:18:40;95823.03;;;8.83;71.01
83664;BME280;73634;47.068;15.426;2024-02-23T13:21:05;95831.72;;;8.69;72.05
83664;BME280;73634;47.068;15.426;2024-02-23T13:23:31;95821.50;;;8.64;72.63
83664;BME280;73634;47.068;15.426;2024-02-23T13:25:56;95814.81;;;8.72;72.66
83664;BME280;73634;47.068;15.426;2024-02-23T13:31:14;95803.81;;;8.75;72.07
83664;BME280;73634;47.068;15.426;2024-02-23T13:33:40;95790.56;;;8.77;71.11
83664;BME280;73634;47.068;15.426;2024-02-23T13:36:06;95798.81;;;8.79;71.96
83664;BME280;73634;47.068;15.426;2024-02-23T13:38:32;95783.53;;;8.68;71.23
83664;BME280;73634;47.068;15.426;2024-02-23T13:41:03;95787.34;;;8.71;71.70
83664;BME280;73634;47.068;15.426;2024-02-23T13:43:29;95779.28;;;8.73;71.01
83664;BME280;73634;47.068;15.426;2024-02-23T13:45:54;95776.06;;;8.76;70.60
83664;BME280;73634;47.068;15.426;2024-02-23T13:48:20;95768.13;;;8.81;71.64
83664;BME280;73634;47.068;15.426;2024-02-23T13:50:48;95763.22;;;8.88;70.90
83664;BME280;73634;47.068;15.426;2024-02-23T13:53:14;95768.88;;;8.98;70.70
83664;BME280;73634;47.068;15.426;2024-02-23T13:57:55;95764.16;;;9.09;69.72
83664;BME280;73634;47.068;15.426;2024-02-23T14:00:20;95759.56;;;9.15;69.74
83664;BME280;73634;47.068;15.426;2024-02-23T14:02:46;95756.31;;;9.26;70.16
83664;BME280;73634;47.068;15.426;2024-02-23T14:05:12;95750.97;;;9.31;70.02
83664;BME280;73634;47.068;15.426;2024-02-23T14:07:38;95749.59;;;9.34;69.42
83664;BME280;73634;47.068;15.426;2024-02-23T14:10:04;95751.41;;;9.33;69.36
83664;BME280;73634;47.068;15.426;2024-02-23T14:12:29;95749.59;;;9.34;69.81